sensor_id;sensor_type;location;lat;lon;timestamp;temperature;humidity
4374;DHT22;2201;51.100;6.814;2023-01-15T00:00:02;8.50;98.20
4374;DHT22;2201;51.100;6.814;2023-01-15T00:02:30;8.50;98.20
4374;DHT22;2201;51.100;6.814;2023-01-15T00:04:57;8.40;98.20
4374;DHT22;2201;51.100;6.814;2023-01-15T00:07:27;8.40;98.20
4374;DHT22;2201;51.100;6.814;2023-01-15T00:09:53;8.30;98.20
4374;DHT22;2201;51.100;6.814;2023-01-15T00:12:20;8.30;98.20
4374;DHT22;2201;51.100;6.814;2023-01-15T00:14:47;8.20;98.20
4374;DHT22;2201;51.100;6.814;2023-01-15T00:17:15;8.20;98.20
4374;DHT22;2201;51.100;6.814;2023-01-15T00:19:42;8.10;98.20
4374;DHT22;2201;51.100;6.814;2023-01-15T00:22:09;8.10;98.20
4374;DHT22;2201;51.100;6.814;2023-01-15T00:24:35;8.00;98.20
4374;DHT22;2201;51.100;6.814;2023-01-15T00:27:19;8.00;98.20
4374;DHT22;2201;51.100;6.814;2023-01-15T00:30:06;8.00;98.20
4374;DHT22;2201;51.100;6.814;2023-01-15T00:32:35;7.90;98.20
4374;DHT22;2201;51.100;6.814;2023-01-15T00:35:01;7.90;98.20
4374;DHT22;2201;51.100;6.814;2023-01-15T00:37:28;7.80;98.20
4374;DHT22;2201;51.100;6.814;2023-01-15T00:39:55;7.70;98.20
4374;DHT22;2201;51.100;6.814;2023-01-15T00:42:22;7.70;98.20
4374;DHT22;2201;51.100;6.814;2023-01-15T00:44:48;7.70;98.20
4374;DHT22;2201;51.100;6.814;2023-01-15T00:47:15;7.60;98.20
4374;DHT22;2201;51.100;6.814;2023-01-15T00:49:43;7.60;98.20
4374;DHT22;2201;51.100;6.814;2023-01-15T00:52:11;7.60;98.20
4374;DHT22;2201;51.100;6.814;2023-01-15T00:54:38;7.60;98.20
4374;DHT22;2201;51.100;6.814;2023-01-15T00:57:05;7.50;98.20
4374;DHT22;2201;51.100;6.814;2023-01-15T00:59:31;7.50;98.20
4374;DHT22;2201;51.100;6.814;2023-01-15T01:01:58;7.50;98.20
4374;DHT22;2201;51.100;6.814;2023-01-15T01:04:25;7.50;98.20
4374;DHT22;2201;51.100;6.814;2023-01-15T01:06:53;7.50;98.20
4374;DHT22;2201;51.100;6.814;2023-01-15T01:09:19;7.40;98.20
4374;DHT22;2201;51.100;6.814;2023-01-15T01:11:48;7.40;98.20
4374;DHT22;2201;51.100;6.814;2023-01-15T01:14:14;7.40;98.20
4374;DHT22;2201;51.100;6.814;2023-01-15T01:16:41;7.40;98.20
4374;DHT22;2201;51.100;6.814;2023-01-15T01:19:09;7.40;98.20
4374;DHT22;2201;51.100;6.814;2023-01-15T01:21:41;7.30;98.20
4374;DHT22;2201;51.100;6.814;2023-01-15T01:24:12;7.40;98.20
4374;DHT22;2201;51.100;6.814;2023-01-15T01:26:39;7.30;98.20
4374;DHT22;2201;51.100;6.814;2023-01-15T01:29:06;7.30;98.20
4374;DHT22;2201;51.100;6.814;2023-01-15T01:31:33;7.30;98.20
4374;DHT22;2201;51.100;6.814;2023-01-15T01:33:59;7.30;98.20
4374;DHT22;2201;51.100;6.814;2023-01-15T01:36:28;7.30;98.20
4374;DHT22;2201;51.100;6.814;2023-01-15T01:38:55;7.30;98.20
4374;DHT22;2201;51.100;6.814;2023-01-15T01:41:23;7.30;98.20
4374;DHT22;2201;51.100;6.814;2023-01-15T01:43:54;7.30;98.20
4374;DHT22;2201;51.100;6.814;2023-01-15T01:46:21;7.30;98.20
4374;DHT22;2201;51.100;6.814;2023-01-15T01:48:50;7.30;98.20
4374;DHT22;2201;51.100;6.814;2023-01-15T01:51:19;7.30;98.20
4374;DHT22;2201;51.100;6.814;2023-01-15T01:53:49;7.30;98.20
4374;DHT22;2201;51.100;6.814;2023-01-15T01:56:16;7.30;98.20
4374;DHT22;2201;51.100;6.814;2023-01-15T01:58:48;7.30;98.20
4374;DHT22;2201;51.100;6.814;2023-01-15T02:01:16;7.20;98.20
4374;DHT22;2201;51.100;6.814;2023-01-15T02:03:43;7.20;98.20
4374;DHT22;2201;51.100;6.814;2023-01-15T02:06:12;7.20;98.20
4374;DHT22;2201;51.100;6.814;2023-01-15T02:08:39;7.20;98.20
4374;DHT22;2201;51.100;6.814;2023-01-15T02:11:09;7.20;98.20
4374;DHT22;2201;51.100;6.814;2023-01-15T02:13:39;7.20;98.20
4374;DHT22;2201;51.100;6.814;2023-01-15T02:16:13;7.20;98.20
4374;DHT22;2201;51.100;6.814;2023-01-15T02:18:45;7.20;98.20
4374;DHT22;2201;51.100;6.814;2023-01-15T02:21:22;7.20;98.20
4374;DHT22;2201;51.100;6.814;2023-01-15T02:24:01;7.20;98.20
4374;DHT22;2201;51.100;6.814;2023-01-15T02:26:59;7.20;98.20
4374;DHT22;2201;51.100;6.814;2023-01-15T02:29:32;7.20;98.20
4374;DHT22;2201;51.100;6.814;2023-01-15T02:32:03;7.20;98.20
4374;DHT22;2201;51.100;6.814;2023-01-15T02:34:33;7.20;98.20
4374;DHT22;2201;51.100;6.814;2023-01-15T02:37:04;7.20;98.20
4374;DHT22;2201;51.100;6.814;2023-01-15T02:39:32;7.20;98.20
4374;DHT22;2201;51.100;6.814;2023-01-15T02:42:05;7.20;98.20
4374;DHT22;2201;51.100;6.814;2023-01-15T02:44:35;7.20;98.20
4374;DHT22;2201;51.100;6.814;2023-01-15T02:47:04;7.20;98.20
4374;DHT22;2201;51.100;6.814;2023-01-15T02:49:33;7.20;98.20
4374;DHT22;2201;51.100;6.814;2023-01-15T02:52:05;7.20;98.20
4374;DHT22;2201;51.100;6.814;2023-01-15T02:54:35;7.20;98.20
4374;DHT22;2201;51.100;6.814;2023-01-15T02:57:09;7.20;98.20
4374;DHT22;2201;51.100;6.814;2023-01-15T02:59:38;7.20;98.20
4374;DHT22;2201;51.100;6.814;2023-01-15T03:02:09;7.20;98.20
4374;DHT22;2201;51.100;6.814;2023-01-15T03:04:42;7.20;98.20
4374;DHT22;2201;51.100;6.814;2023-01-15T03:07:14;7.20;98.20
4374;DHT22;2201;51.100;6.814;2023-01-15T03:09:45;7.20;98.20
4374;DHT22;2201;51.100;6.814;2023-01-15T03:12:15;7.20;98.20
4374;DHT22;2201;51.100;6.814;2023-01-15T03:14:51;7.20;98.20
4374;DHT22;2201;51.100;6.814;2023-01-15T03:17:21;7.20;98.20
4374;DHT22;2201;51.100;6.814;2023-01-15T03:19:52;7.20;98.20
4374;DHT22;2201;51.100;6.814;2023-01-15T03:22:26;7.20;98.20
4374;DHT22;2201;51.100;6.814;2023-01-15T03:24:56;7.20;98.20
4374;DHT22;2201;51.100;6.814;2023-01-15T03:27:27;7.20;98.20
4374;DHT22;2201;51.100;6.814;2023-01-15T03:29:58;7.20;98.20
4374;DHT22;2201;51.100;6.814;2023-01-15T03:32:28;7.20;98.20
4374;DHT22;2201;51.100;6.814;2023-01-15T03:34:56;7.20;98.20
4374;DHT22;2201;51.100;6.814;2023-01-15T03:37:24;7.20;98.20
4374;DHT22;2201;51.100;6.814;2023-01-15T03:39:53;7.20;98.20
4374;DHT22;2201;51.100;6.814;2023-01-15T03:42:31;7.20;98.20
4374;DHT22;2201;51.100;6.814;2023-01-15T03:45:05;7.20;98.20
4374;DHT22;2201;51.100;6.814;2023-01-15T03:47:44;7.20;98.20
4374;DHT22;2201;51.100;6.814;2023-01-15T03:50:20;7.20;98.20
4374;DHT22;2201;51.100;6.814;2023-01-15T03:52:55;7.20;98.20
4374;DHT22;2201;51.100;6.814;2023-01-15T03:55:26;7.10;98.20
4374;DHT22;2201;51.100;6.814;2023-01-15T03:58:00;7.20;98.20
4374;DHT22;2201;51.100;6.814;2023-01-15T04:00:32;7.10;98.20
4374;DHT22;2201;51.100;6.814;2023-01-15T04:03:02;7.20;98.20
4374;DHT22;2201;51.100;6.814;2023-01-15T04:05:30;7.10;98.20
4374;DHT22;2201;51.100;6.814;2023-01-15T04:07:59;7.10;98.20
4374;DHT22;2201;51.100;6.814;2023-01-15T04:10:26;7.10;98.20
4374;DHT22;2201;51.100;6.814;2023-01-15T04:12:53;7.10;98.20
4374;DHT22;2201;51.100;6.814;2023-01-15T04:15:21;7.10;98.20
4374;DHT22;2201;51.100;6.814;2023-01-15T04:17:48;7.10;98.20
4374;DHT22;2201;51.100;6.814;2023-01-15T04:20:15;7.10;98.20
4374;DHT22;2201;51.100;6.814;2023-01-15T04:22:42;7.10;98.20
4374;DHT22;2201;51.100;6.814;2023-01-15T04:25:09;7.10;98.20
4374;DHT22;2201;51.100;6.814;2023-01-15T04:27:36;7.10;98.20
4374;DHT22;2201;51.100;6.814;2023-01-15T04:30:04;7.10;98.20
4374;DHT22;2201;51.100;6.814;2023-01-15T04:32:32;7.10;98.20
4374;DHT22;2201;51.100;6.814;2023-01-15T04:34:59;7.10;98.20
4374;DHT22;2201;51.100;6.814;2023-01-15T04:37:25;7.10;98.20
4374;DHT22;2201;51.100;6.814;2023-01-15T04:39:52;7.10;98.20
4374;DHT22;2201;51.100;6.814;2023-01-15T04:42:19;7.10;98.20
4374;DHT22;2201;51.100;6.814;2023-01-15T04:45:04;7.10;98.20
4374;DHT22;2201;51.100;6.814;2023-01-15T04:47:32;7.10;98.20
4374;DHT22;2201;51.100;6.814;2023-01-15T04:49:59;7.10;98.20
4374;DHT22;2201;51.100;6.814;2023-01-15T04:52:25;7.10;98.20
4374;DHT22;2201;51.100;6.814;2023-01-15T04:54:53;7.10;98.20
4374;DHT22;2201;51.100;6.814;2023-01-15T04:57:20;7.10;98.20
4374;DHT22;2201;51.100;6.814;2023-01-15T04:59:47;7.10;98.20
4374;DHT22;2201;51.100;6.814;2023-01-15T05:02:14;7.10;98.20
4374;DHT22;2201;51.100;6.814;2023-01-15T05:04:42;7.10;98.20
4374;DHT22;2201;51.100;6.814;2023-01-15T05:07:10;7.10;98.20
4374;DHT22;2201;51.100;6.814;2023-01-15T05:09:36;7.10;98.20
4374;DHT22;2201;51.100;6.814;2023-01-15T05:12:04;7.10;98.20
4374;DHT22;2201;51.100;6.814;2023-01-15T05:14:31;7.10;98.20
4374;DHT22;2201;51.100;6.814;2023-01-15T05:16:58;7.10;98.20
4374;DHT22;2201;51.100;6.814;2023-01-15T05:19:24;7.10;98.20
4374;DHT22;2201;51.100;6.814;2023-01-15T05:21:53;7.10;98.20
4374;DHT22;2201;51.100;6.814;2023-01-15T05:24:20;7.10;98.20
4374;DHT22;2201;51.100;6.814;2023-01-15T05:26:47;7.10;98.20
4374;DHT22;2201;51.100;6.814;2023-01-15T05:29:13;7.10;98.20
4374;DHT22;2201;51.100;6.814;2023-01-15T05:31:41;7.10;98.20
4374;DHT22;2201;51.100;6.814;2023-01-15T05:34:10;7.10;98.20
4374;DHT22;2201;51.100;6.814;2023-01-15T05:36:37;7.10;98.20
4374;DHT22;2201;51.100;6.814;2023-01-15T05:39:06;7.10;98.20
4374;DHT22;2201;51.100;6.814;2023-01-15T05:41:32;7.10;98.20
4374;DHT22;2201;51.100;6.814;2023-01-15T05:44:16;7.10;98.20
4374;DHT22;2201;51.100;6.814;2023-01-15T05:46:44;7.10;98.20
4374;DHT22;2201;51.100;6.814;2023-01-15T05:49:14;7.10;98.20
4374;DHT22;2201;51.100;6.814;2023-01-15T05:51:42;7.10;98.20
4374;DHT22;2201;51.100;6.814;2023-01-15T05:54:13;7.10;98.20
4374;DHT22;2201;51.100;6.814;2023-01-15T05:56:40;7.00;98.20
4374;DHT22;2201;51.100;6.814;2023-01-15T05:59:07;7.00;98.20
4374;DHT22;2201;51.100;6.814;2023-01-15T06:01:35;7.00;98.20
4374;DHT22;2201;51.100;6.814;2023-01-15T06:04:04;7.00;98.20
4374;DHT22;2201;51.100;6.814;2023-01-15T06:06:32;7.00;98.20
4374;DHT22;2201;51.100;6.814;2023-01-15T06:08:59;7.00;98.20
4374;DHT22;2201;51.100;6.814;2023-01-15T06:11:28;7.00;98.20
4374;DHT22;2201;51.100;6.814;2023-01-15T06:13:54;7.00;98.20
4374;DHT22;2201;51.100;6.814;2023-01-15T06:16:22;7.00;98.20
4374;DHT22;2201;51.100;6.814;2023-01-15T06:18:49;7.00;98.20
4374;DHT22;2201;51.100;6.814;2023-01-15T06:21:17;7.00;98.20
4374;DHT22;2201;51.100;6.814;2023-01-15T06:23:45;7.10;98.20
4374;DHT22;2201;51.100;6.814;2023-01-15T06:26:13;7.00;98.20
4374;DHT22;2201;51.100;6.814;2023-01-15T06:28:43;7.00;98.20
4374;DHT22;2201;51.100;6.814;2023-01-15T06:31:14;7.00;98.20
4374;DHT22;2201;51.100;6.814;2023-01-15T06:33:41;7.00;98.20
4374;DHT22;2201;51.100;6.814;2023-01-15T06:36:10;7.00;98.20
4374;DHT22;2201;51.100;6.814;2023-01-15T06:38:38;7.00;98.20
4374;DHT22;2201;51.100;6.814;2023-01-15T06:41:06;7.00;98.20
4374;DHT22;2201;51.100;6.814;2023-01-15T06:43:55;7.00;98.20
4374;DHT22;2201;51.100;6.814;2023-01-15T06:46:44;7.00;98.20
4374;DHT22;2201;51.100;6.814;2023-01-15T06:49:28;7.00;98.20
4374;DHT22;2201;51.100;6.814;2023-01-15T06:51:55;6.90;98.20
4374;DHT22;2201;51.100;6.814;2023-01-15T06:54:22;6.90;98.20
4374;DHT22;2201;51.100;6.814;2023-01-15T06:56:49;6.90;98.20
4374;DHT22;2201;51.100;6.814;2023-01-15T06:59:17;6.90;98.20
4374;DHT22;2201;51.100;6.814;2023-01-15T07:01:44;6.90;98.20
4374;DHT22;2201;51.100;6.814;2023-01-15T07:04:11;6.90;98.20
4374;DHT22;2201;51.100;6.814;2023-01-15T07:06:38;6.90;98.20
4374;DHT22;2201;51.100;6.814;2023-01-15T07:09:05;6.90;98.20
4374;DHT22;2201;51.100;6.814;2023-01-15T07:11:32;6.90;98.20
4374;DHT22;2201;51.100;6.814;2023-01-15T07:13:59;6.90;98.20
4374;DHT22;2201;51.100;6.814;2023-01-15T07:16:33;6.90;98.20
4374;DHT22;2201;51.100;6.814;2023-01-15T07:19:00;6.90;98.20
4374;DHT22;2201;51.100;6.814;2023-01-15T07:21:28;6.90;98.20
4374;DHT22;2201;51.100;6.814;2023-01-15T07:23:58;6.90;98.20
4374;DHT22;2201;51.100;6.814;2023-01-15T07:26:25;6.90;98.20
4374;DHT22;2201;51.100;6.814;2023-01-15T07:28:52;6.90;98.20
4374;DHT22;2201;51.100;6.814;2023-01-15T07:31:20;6.90;98.20
4374;DHT22;2201;51.100;6.814;2023-01-15T07:33:48;6.90;98.20
4374;DHT22;2201;51.100;6.814;2023-01-15T07:36:15;6.90;98.20
4374;DHT22;2201;51.100;6.814;2023-01-15T07:38:42;6.90;98.20
4374;DHT22;2201;51.100;6.814;2023-01-15T07:41:12;6.90;98.20
4374;DHT22;2201;51.100;6.814;2023-01-15T07:43:57;6.90;98.20
4374;DHT22;2201;51.100;6.814;2023-01-15T07:46:42;6.90;98.20
4374;DHT22;2201;51.100;6.814;2023-01-15T07:49:27;6.90;98.20
4374;DHT22;2201;51.100;6.814;2023-01-15T07:52:14;6.90;98.20
4374;DHT22;2201;51.100;6.814;2023-01-15T07:54:41;6.90;98.20
4374;DHT22;2201;51.100;6.814;2023-01-15T07:57:09;6.90;98.20
4374;DHT22;2201;51.100;6.814;2023-01-15T07:59:37;6.90;98.20
4374;DHT22;2201;51.100;6.814;2023-01-15T08:02:04;6.90;98.20
4374;DHT22;2201;51.100;6.814;2023-01-15T08:04:32;6.90;98.20
4374;DHT22;2201;51.100;6.814;2023-01-15T08:06:59;6.90;98.20
4374;DHT22;2201;51.100;6.814;2023-01-15T08:09:26;6.90;98.20
4374;DHT22;2201;51.100;6.814;2023-01-15T08:11:52;6.90;98.20
4374;DHT22;2201;51.100;6.814;2023-01-15T08:14:37;6.90;98.20
4374;DHT22;2201;51.100;6.814;2023-01-15T08:17:21;6.90;98.20
4374;DHT22;2201;51.100;6.814;2023-01-15T08:19:49;6.90;98.20
4374;DHT22;2201;51.100;6.814;2023-01-15T08:22:19;6.90;98.20
4374;DHT22;2201;51.100;6.814;2023-01-15T08:24:47;6.90;98.20
4374;DHT22;2201;51.100;6.814;2023-01-15T08:27:14;6.90;98.20
4374;DHT22;2201;51.100;6.814;2023-01-15T08:29:42;6.90;98.20
4374;DHT22;2201;51.100;6.814;2023-01-15T08:32:08;6.80;98.20
4374;DHT22;2201;51.100;6.814;2023-01-15T08:34:35;6.80;98.20
4374;DHT22;2201;51.100;6.814;2023-01-15T08:37:03;6.80;98.20
4374;DHT22;2201;51.100;6.814;2023-01-15T08:39:30;6.80;98.20
4374;DHT22;2201;51.100;6.814;2023-01-15T08:41:57;6.80;98.20
4374;DHT22;2201;51.100;6.814;2023-01-15T08:44:24;6.70;98.20
4374;DHT22;2201;51.100;6.814;2023-01-15T08:46:51;6.80;98.20
4374;DHT22;2201;51.100;6.814;2023-01-15T08:49:20;6.70;98.20
4374;DHT22;2201;51.100;6.814;2023-01-15T08:51:47;6.70;98.20
4374;DHT22;2201;51.100;6.814;2023-01-15T08:54:18;6.70;98.20
4374;DHT22;2201;51.100;6.814;2023-01-15T08:56:47;6.70;98.20
4374;DHT22;2201;51.100;6.814;2023-01-15T08:59:14;6.70;98.20
4374;DHT22;2201;51.100;6.814;2023-01-15T09:01:41;6.70;98.20
4374;DHT22;2201;51.100;6.814;2023-01-15T09:04:11;6.60;98.20
4374;DHT22;2201;51.100;6.814;2023-01-15T09:06:38;6.60;98.20
4374;DHT22;2201;51.100;6.814;2023-01-15T09:09:05;6.60;98.20
4374;DHT22;2201;51.100;6.814;2023-01-15T09:11:33;6.60;98.20
4374;DHT22;2201;51.100;6.814;2023-01-15T09:14:00;6.50;98.20
4374;DHT22;2201;51.100;6.814;2023-01-15T09:16:27;6.50;98.20
4374;DHT22;2201;51.100;6.814;2023-01-15T09:18:56;6.40;98.20
4374;DHT22;2201;51.100;6.814;2023-01-15T09:21:24;6.40;98.20
4374;DHT22;2201;51.100;6.814;2023-01-15T09:23:52;6.30;98.20
4374;DHT22;2201;51.100;6.814;2023-01-15T09:26:25;6.30;98.20
4374;DHT22;2201;51.100;6.814;2023-01-15T09:28:55;6.30;98.20
4374;DHT22;2201;51.100;6.814;2023-01-15T09:31:22;6.30;98.20
4374;DHT22;2201;51.100;6.814;2023-01-15T09:33:49;6.30;98.20
4374;DHT22;2201;51.100;6.814;2023-01-15T09:36:16;6.30;98.20
4374;DHT22;2201;51.100;6.814;2023-01-15T09:38:44;6.30;98.20
4374;DHT22;2201;51.100;6.814;2023-01-15T09:41:12;6.40;98.20
4374;DHT22;2201;51.100;6.814;2023-01-15T09:44:02;6.60;98.20
4374;DHT22;2201;51.100;6.814;2023-01-15T09:46:37;6.70;98.20
4374;DHT22;2201;51.100;6.814;2023-01-15T09:49:11;6.80;98.20
4374;DHT22;2201;51.100;6.814;2023-01-15T09:51:45;6.80;98.20
4374;DHT22;2201;51.100;6.814;2023-01-15T09:54:20;6.90;98.20
4374;DHT22;2201;51.100;6.814;2023-01-15T09:56:48;7.00;98.20
4374;DHT22;2201;51.100;6.814;2023-01-15T09:59:27;7.00;98.20
4374;DHT22;2201;51.100;6.814;2023-01-15T10:01:59;7.00;98.20
4374;DHT22;2201;51.100;6.814;2023-01-15T10:04:34;7.10;98.20
4374;DHT22;2201;51.100;6.814;2023-01-15T10:07:08;7.20;98.20
4374;DHT22;2201;51.100;6.814;2023-01-15T10:09:38;7.20;98.20
4374;DHT22;2201;51.100;6.814;2023-01-15T10:12:12;7.30;98.20
4374;DHT22;2201;51.100;6.814;2023-01-15T10:15:04;7.40;98.20
4374;DHT22;2201;51.100;6.814;2023-01-15T10:17:37;7.60;98.20
4374;DHT22;2201;51.100;6.814;2023-01-15T10:20:13;7.60;98.20
4374;DHT22;2201;51.100;6.814;2023-01-15T10:22:52;7.70;98.20
4374;DHT22;2201;51.100;6.814;2023-01-15T10:25:26;7.60;98.20
4374;DHT22;2201;51.100;6.814;2023-01-15T10:27:58;7.60;98.20
4374;DHT22;2201;51.100;6.814;2023-01-15T10:30:37;7.60;98.20
4374;DHT22;2201;51.100;6.814;2023-01-15T10:33:21;7.60;98.20
4374;DHT22;2201;51.100;6.814;2023-01-15T10:35:56;7.70;98.20
4374;DHT22;2201;51.100;6.814;2023-01-15T10:38:31;7.80;98.20
4374;DHT22;2201;51.100;6.814;2023-01-15T10:41:08;7.80;98.20
4374;DHT22;2201;51.100;6.814;2023-01-15T10:43:46;7.80;98.20
4374;DHT22;2201;51.100;6.814;2023-01-15T10:46:18;7.80;98.20
4374;DHT22;2201;51.100;6.814;2023-01-15T10:48:54;7.80;98.20
4374;DHT22;2201;51.100;6.814;2023-01-15T10:51:25;7.80;98.20
4374;DHT22;2201;51.100;6.814;2023-01-15T10:53:56;7.80;98.20
4374;DHT22;2201;51.100;6.814;2023-01-15T10:56:30;7.80;98.20
4374;DHT22;2201;51.100;6.814;2023-01-15T10:59:03;7.80;98.20
4374;DHT22;2201;51.100;6.814;2023-01-15T11:01:36;7.80;98.20
4374;DHT22;2201;51.100;6.814;2023-01-15T11:04:04;7.90;98.20
4374;DHT22;2201;51.100;6.814;2023-01-15T11:06:32;7.90;98.20
4374;DHT22;2201;51.100;6.814;2023-01-15T11:09:00;7.90;98.20
4374;DHT22;2201;51.100;6.814;2023-01-15T11:11:31;7.90;98.20
4374;DHT22;2201;51.100;6.814;2023-01-15T11:14:35;8.00;98.20
4374;DHT22;2201;51.100;6.814;2023-01-15T11:17:23;8.10;98.20
4374;DHT22;2201;51.100;6.814;2023-01-15T11:20:19;8.10;98.20
4374;DHT22;2201;51.100;6.814;2023-01-15T11:22:48;8.20;98.20
4374;DHT22;2201;51.100;6.814;2023-01-15T11:25:29;8.20;98.20
4374;DHT22;2201;51.100;6.814;2023-01-15T11:27:58;8.20;98.20
4374;DHT22;2201;51.100;6.814;2023-01-15T11:30:29;8.30;98.20
4374;DHT22;2201;51.100;6.814;2023-01-15T11:33:01;8.30;98.20
4374;DHT22;2201;51.100;6.814;2023-01-15T11:35:30;8.30;98.20
4374;DHT22;2201;51.100;6.814;2023-01-15T11:38:04;8.40;98.20
4374;DHT22;2201;51.100;6.814;2023-01-15T11:40:32;8.40;98.20
4374;DHT22;2201;51.100;6.814;2023-01-15T11:43:00;8.40;98.20
4374;DHT22;2201;51.100;6.814;2023-01-15T11:45:49;8.30;98.20
4374;DHT22;2201;51.100;6.814;2023-01-15T11:48:43;8.30;98.20
4374;DHT22;2201;51.100;6.814;2023-01-15T11:51:30;8.40;98.20
4374;DHT22;2201;51.100;6.814;2023-01-15T11:54:01;8.30;98.20
4374;DHT22;2201;51.100;6.814;2023-01-15T11:56:29;8.30;98.20
4374;DHT22;2201;51.100;6.814;2023-01-15T11:59:00;8.30;98.20
4374;DHT22;2201;51.100;6.814;2023-01-15T12:01:29;8.30;98.20
4374;DHT22;2201;51.100;6.814;2023-01-15T12:04:00;8.40;98.20
4374;DHT22;2201;51.100;6.814;2023-01-15T12:06:27;8.30;98.20
4374;DHT22;2201;51.100;6.814;2023-01-15T12:09:02;8.30;98.20
4374;DHT22;2201;51.100;6.814;2023-01-15T12:11:49;8.30;98.20
4374;DHT22;2201;51.100;6.814;2023-01-15T12:14:43;8.20;98.20
4374;DHT22;2201;51.100;6.814;2023-01-15T12:17:21;8.20;98.20
4374;DHT22;2201;51.100;6.814;2023-01-15T12:19:57;8.20;98.20
4374;DHT22;2201;51.100;6.814;2023-01-15T12:22:37;8.30;98.20
4374;DHT22;2201;51.100;6.814;2023-01-15T12:25:35;8.30;98.20
4374;DHT22;2201;51.100;6.814;2023-01-15T12:28:09;8.40;98.20
4374;DHT22;2201;51.100;6.814;2023-01-15T12:30:42;8.40;98.20
4374;DHT22;2201;51.100;6.814;2023-01-15T12:33:18;8.40;98.20
4374;DHT22;2201;51.100;6.814;2023-01-15T12:35:52;8.40;98.20
4374;DHT22;2201;51.100;6.814;2023-01-15T12:38:30;8.40;98.20
4374;DHT22;2201;51.100;6.814;2023-01-15T12:41:06;8.40;98.20
4374;DHT22;2201;51.100;6.814;2023-01-15T12:43:34;8.40;98.20
4374;DHT22;2201;51.100;6.814;2023-01-15T12:46:21;8.40;98.20
4374;DHT22;2201;51.100;6.814;2023-01-15T12:48:53;8.50;98.20
4374;DHT22;2201;51.100;6.814;2023-01-15T12:51:26;8.50;98.20
4374;DHT22;2201;51.100;6.814;2023-01-15T12:53:58;8.60;98.20
4374;DHT22;2201;51.100;6.814;2023-01-15T12:56:34;8.70;98.20
4374;DHT22;2201;51.100;6.814;2023-01-15T12:59:06;8.80;98.20
4374;DHT22;2201;51.100;6.814;2023-01-15T13:01:44;8.90;98.20
4374;DHT22;2201;51.100;6.814;2023-01-15T13:04:17;8.90;98.20
4374;DHT22;2201;51.100;6.814;2023-01-15T13:06:55;8.90;98.20
4374;DHT22;2201;51.100;6.814;2023-01-15T13:09:33;8.90;98.20
4374;DHT22;2201;51.100;6.814;2023-01-15T13:12:07;8.90;98.20
4374;DHT22;2201;51.100;6.814;2023-01-15T13:14:36;8.90;98.20
4374;DHT22;2201;51.100;6.814;2023-01-15T13:17:10;9.10;98.20
4374;DHT22;2201;51.100;6.814;2023-01-15T13:22:58;9.10;98.20
4374;DHT22;2201;51.100;6.814;2023-01-15T13:25:56;9.00;98.20
4374;DHT22;2201;51.100;6.814;2023-01-15T13:29:01;9.00;98.20
4374;DHT22;2201;51.100;6.814;2023-01-15T13:32:05;9.10;98.20
4374;DHT22;2201;51.100;6.814;2023-01-15T13:34:40;9.10;98.20
4374;DHT22;2201;51.100;6.814;2023-01-15T13:37:18;9.10;98.20
4374;DHT22;2201;51.100;6.814;2023-01-15T13:39:52;9.00;98.20
4374;DHT22;2201;51.100;6.814;2023-01-15T13:42:23;9.00;98.20
4374;DHT22;2201;51.100;6.814;2023-01-15T13:45:04;8.90;98.20
4374;DHT22;2201;51.100;6.814;2023-01-15T13:47:35;8.90;98.20
4374;DHT22;2201;51.100;6.814;2023-01-15T13:50:05;8.80;98.20
4374;DHT22;2201;51.100;6.814;2023-01-15T13:52:40;8.80;98.20
4374;DHT22;2201;51.100;6.814;2023-01-15T13:55:14;8.70;98.20
4374;DHT22;2201;51.100;6.814;2023-01-15T13:57:45;8.70;98.20
4374;DHT22;2201;51.100;6.814;2023-01-15T14:00:29;8.60;98.20
4374;DHT22;2201;51.100;6.814;2023-01-15T14:03:00;8.60;98.20
4374;DHT22;2201;51.100;6.814;2023-01-15T14:05:31;8.60;98.20
4374;DHT22;2201;51.100;6.814;2023-01-15T14:08:01;8.60;98.20
4374;DHT22;2201;51.100;6.814;2023-01-15T14:10:36;8.60;98.20
4374;DHT22;2201;51.100;6.814;2023-01-15T14:13:34;8.50;98.20
4374;DHT22;2201;51.100;6.814;2023-01-15T14:16:14;8.50;98.20
4374;DHT22;2201;51.100;6.814;2023-01-15T14:19:05;8.50;98.20
4374;DHT22;2201;51.100;6.814;2023-01-15T14:21:42;8.50;98.20
4374;DHT22;2201;51.100;6.814;2023-01-15T14:24:42;8.50;98.20
4374;DHT22;2201;51.100;6.814;2023-01-15T14:27:22;8.50;98.20
4374;DHT22;2201;51.100;6.814;2023-01-15T14:30:15;8.50;98.20
4374;DHT22;2201;51.100;6.814;2023-01-15T14:33:00;8.40;98.20
4374;DHT22;2201;51.100;6.814;2023-01-15T14:35:34;8.40;98.20
4374;DHT22;2201;51.100;6.814;2023-01-15T14:38:05;8.40;98.20
4374;DHT22;2201;51.100;6.814;2023-01-15T14:40:35;8.30;98.20
4374;DHT22;2201;51.100;6.814;2023-01-15T14:43:12;8.30;98.20
4374;DHT22;2201;51.100;6.814;2023-01-15T14:45:43;8.30;98.20
4374;DHT22;2201;51.100;6.814;2023-01-15T14:48:18;8.30;98.20
4374;DHT22;2201;51.100;6.814;2023-01-15T14:50:48;8.30;98.20
4374;DHT22;2201;51.100;6.814;2023-01-15T14:53:29;8.20;98.20
4374;DHT22;2201;51.100;6.814;2023-01-15T14:56:03;8.20;98.20
4374;DHT22;2201;51.100;6.814;2023-01-15T14:58:45;8.20;98.20
4374;DHT22;2201;51.100;6.814;2023-01-15T15:01:35;8.20;98.20
4374;DHT22;2201;51.100;6.814;2023-01-15T15:04:13;8.20;98.20
4374;DHT22;2201;51.100;6.814;2023-01-15T15:06:46;8.20;98.20
4374;DHT22;2201;51.100;6.814;2023-01-15T15:09:22;8.20;98.20
4374;DHT22;2201;51.100;6.814;2023-01-15T15:11:54;8.20;98.20
4374;DHT22;2201;51.100;6.814;2023-01-15T15:14:47;8.20;98.20
4374;DHT22;2201;51.100;6.814;2023-01-15T15:17:20;8.20;98.20
4374;DHT22;2201;51.100;6.814;2023-01-15T15:20:05;8.20;98.20
4374;DHT22;2201;51.100;6.814;2023-01-15T15:22:36;8.20;98.20
4374;DHT22;2201;51.100;6.814;2023-01-15T15:25:09;8.20;98.20
4374;DHT22;2201;51.100;6.814;2023-01-15T15:27:39;8.20;98.20
4374;DHT22;2201;51.100;6.814;2023-01-15T15:30:11;8.10;98.20
4374;DHT22;2201;51.100;6.814;2023-01-15T15:32:40;8.10;98.20
4374;DHT22;2201;51.100;6.814;2023-01-15T15:35:23;8.00;98.20
4374;DHT22;2201;51.100;6.814;2023-01-15T15:37:52;8.00;98.20
4374;DHT22;2201;51.100;6.814;2023-01-15T15:40:24;8.00;98.20
4374;DHT22;2201;51.100;6.814;2023-01-15T15:43:03;8.00;98.20
4374;DHT22;2201;51.100;6.814;2023-01-15T15:45:54;7.90;98.20
4374;DHT22;2201;51.100;6.814;2023-01-15T15:48:39;7.90;98.20
4374;DHT22;2201;51.100;6.814;2023-01-15T15:51:26;7.90;98.20
4374;DHT22;2201;51.100;6.814;2023-01-15T15:54:14;7.80;98.20
4374;DHT22;2201;51.100;6.814;2023-01-15T15:56:47;7.70;98.20
4374;DHT22;2201;51.100;6.814;2023-01-15T15:59:29;7.70;98.20
4374;DHT22;2201;51.100;6.814;2023-01-15T16:02:12;7.60;98.20
4374;DHT22;2201;51.100;6.814;2023-01-15T16:04:46;7.60;98.20
4374;DHT22;2201;51.100;6.814;2023-01-15T16:07:21;7.60;98.20
4374;DHT22;2201;51.100;6.814;2023-01-15T16:09:52;7.60;98.20
4374;DHT22;2201;51.100;6.814;2023-01-15T16:12:20;7.60;98.20
4374;DHT22;2201;51.100;6.814;2023-01-15T16:14:49;7.60;98.20
4374;DHT22;2201;51.100;6.814;2023-01-15T16:17:18;7.60;98.20
4374;DHT22;2201;51.100;6.814;2023-01-15T16:19:46;7.60;98.20
4374;DHT22;2201;51.100;6.814;2023-01-15T16:22:15;7.60;98.20
4374;DHT22;2201;51.100;6.814;2023-01-15T16:24:53;7.60;98.20
4374;DHT22;2201;51.100;6.814;2023-01-15T16:27:20;7.60;98.20
4374;DHT22;2201;51.100;6.814;2023-01-15T16:29:49;7.60;98.20
4374;DHT22;2201;51.100;6.814;2023-01-15T16:32:23;7.60;98.20
4374;DHT22;2201;51.100;6.814;2023-01-15T16:34:59;7.60;98.20
4374;DHT22;2201;51.100;6.814;2023-01-15T16:37:30;7.60;98.20
4374;DHT22;2201;51.100;6.814;2023-01-15T16:39:58;7.60;98.20
4374;DHT22;2201;51.100;6.814;2023-01-15T16:42:29;7.60;98.20
4374;DHT22;2201;51.100;6.814;2023-01-15T16:45:00;7.70;98.20
4374;DHT22;2201;51.100;6.814;2023-01-15T16:47:31;7.60;98.20
4374;DHT22;2201;51.100;6.814;2023-01-15T16:50:27;7.60;98.20
4374;DHT22;2201;51.100;6.814;2023-01-15T16:52:56;7.60;98.20